Home > Products > Valid Products > TAF

000
FTUS43 KEAX 282300
TAFMCI
TAF
KMCI 282320Z 2900/2924 35005KT P6SM SCT040=



000
FTUS43 KEAX 282300
TAFMKC
TAF
KMKC 282320Z 2900/2924 35005KT P6SM SCT040=



000
FTUS43 KEAX 282300
TAFSTJ
TAF
KSTJ 282320Z 2900/2924 34004KT P6SM SCT040=



000
FTUS43 KEAX 281700
TAFSTJ
TAF
KSTJ 281720Z 2818/2918 35007KT P6SM BKN025
     FM281900 34007KT P6SM BKN035
     FM290000 36003KT P6SM SKC=



000
FTUS43 KEAX 281700
TAFMCI
TAF
KMCI 281720Z 2818/2918 35008KT P6SM BKN025
     FM281900 35009KT P6SM BKN035
     FM290100 VRB04KT P6SM SKC=



000
FTUS43 KEAX 281700
TAFMKC
TAF
KMKC 281720Z 2818/2918 35009KT P6SM BKN035
     FM290100 VRB03KT P6SM SKC=



000
FTUS43 KEAX 281500 AAA
TAFSTJ
TAF AMD
KSTJ 281505Z 2815/2912 35010KT P6SM SCT040
      TEMPO 2815/2817 BKN020=



000
FTUS43 KEAX 281100
TAFMCI
TAF
KMCI 281120Z 2812/2912 34005KT P6SM SKC
     FM281500 35010KT P6SM SCT040=



000
FTUS43 KEAX 281100
TAFSTJ
TAF
KSTJ 281120Z 2812/2912 36005KT P6SM SKC
     FM281500 35010KT P6SM SCT040=



000
FTUS43 KEAX 281100
TAFMKC
TAF
KMKC 281120Z 2812/2912 34004KT P6SM SKC
     FM281500 35009KT P6SM SCT040=



000
FTUS43 KEAX 280500
TAFMKC
TAF
KMKC 280520Z 2806/2906 01005KT P6SM SKC
     FM281500 36009KT P6SM SCT035=



000
FTUS43 KEAX 280500
TAFMCI
TAF
KMCI 280520Z 2806/2906 36006KT P6SM SKC
     FM281500 35009KT P6SM SCT035=



000
FTUS43 KEAX 280500
TAFSTJ
TAF
KSTJ 280520Z 2806/2906 36006KT P6SM SKC
      TEMPO 2810/2813 4SM BR
     FM281500 35008KT P6SM SCT035=



000
FTUS43 KEAX 272300
TAFMCI
TAF
KMCI 272324Z 2800/2824 33013G23KT P6SM FEW060 FEW250
     FM280100 36006KT P6SM SKC
      TEMPO 2810/2813 5SM BR
     FM281500 35009KT P6SM SCT035=



000
FTUS43 KEAX 272300
TAFMKC
TAF
KMKC 272324Z 2800/2824 33010G21KT P6SM SKC
     FM280100 01005KT P6SM SKC
     FM281500 36009KT P6SM SCT035=



000
FTUS43 KEAX 272300
TAFSTJ
TAF
KSTJ 272324Z 2800/2824 34015G19KT P6SM FEW060
      TEMPO 2810/2813 4SM BR
     FM281500 35008KT P6SM SCT035=



000
FTUS43 KEAX 271700
TAFMKC
TAF
KMKC 271720Z 2718/2818 33012KT P6SM BKN250
     FM280100 01005KT P6SM SKC
     FM281500 36009KT P6SM SCT035=



000
FTUS43 KEAX 271700
TAFSTJ
TAF
KSTJ 271720Z 2718/2818 33014G21KT P6SM SCT250
     FM280000 35005KT P6SM SKC
      TEMPO 2810/2813 4SM BR
     FM281500 35008KT P6SM SCT035=



000
FTUS43 KEAX 271700
TAFMCI
TAF
KMCI 271720Z 2718/2818 33012KT P6SM BKN250
     FM280100 36006KT P6SM SKC
      TEMPO 2810/2813 5SM BR
     FM281500 35009KT P6SM SCT035=



000
FTUS43 KEAX 271200 AAA
TAFSTJ
TAF AMD
KSTJ 271220Z 2712/2812 34004KT P6SM FEW070
      TEMPO 2712/2713 1/4SM FG VV003
     FM271400 33012KT P6SM SKC
     FM280000 35005KT P6SM SKC=



000
FTUS43 KEAX 271100
TAFSTJ
TAF
KSTJ 271120Z 2712/2812 34004KT P6SM FEW070
      TEMPO 2712/2714 1SM BR
     FM271400 33012KT P6SM SKC
     FM280000 35005KT P6SM SKC=



000
FTUS43 KEAX 271100
TAFMKC
TAF
KMKC 271120Z 2712/2812 35008KT P6SM FEW070
     FM271400 33012KT P6SM SCT100
     FM280000 36005KT P6SM SKC=



000
FTUS43 KEAX 271100
TAFMCI
TAF
KMCI 271120Z 2712/2812 34008KT P6SM FEW070
     FM271400 33012KT P6SM SCT100
     FM280000 35005KT P6SM SKC=



000
FTUS43 KEAX 271000 AAB
TAFSTJ
TAF AMD
KSTJ 271036Z 2711/2806 34004KT P6SM FEW070 FEW150
      TEMPO 2711/2713 1SM BR
     FM271400 34012KT P6SM FEW050=



000
FTUS43 KEAX 270800 AAA
TAFSTJ
TAF AMD
KSTJ 270854Z 2709/2806 34004KT P6SM FEW070 FEW150
      TEMPO 2709/2713 4SM BR
     FM271400 34012KT P6SM FEW050=



000
FTUS43 KEAX 270500
TAFSTJ
TAF
KSTJ 270520Z 2706/2806 34004KT P6SM FEW070 FEW150
      TEMPO 2710/2713 4SM BR
     FM271400 34012KT P6SM FEW050=



000
FTUS43 KEAX 270500
TAFMCI
TAF
KMCI 270520Z 2706/2806 34006KT P6SM FEW070 FEW150
     FM271400 33012KT P6SM FEW050=



000
FTUS43 KEAX 270500
TAFMKC
TAF
KMKC 270520Z 2706/2806 34005KT P6SM FEW070 FEW150
     FM271400 33012KT P6SM FEW050=



000
FTUS43 KEAX 262300
TAFSTJ
TAF
KSTJ 262327Z 2700/2724 VRB06KT P6SM BKN150
     FM270400 34005KT P6SM FEW150
     FM271400 34012KT P6SM FEW050=



000
FTUS43 KEAX 262300
TAFMCI
TAF
KMCI 262327Z 2700/2724 VRB06KT P6SM BKN150
     FM270500 35007KT P6SM SCT150
     FM271400 33012KT P6SM FEW050=



000
FTUS43 KEAX 262300
TAFMKC
TAF
KMKC 262327Z 2700/2724 VRB06KT P6SM BKN150
     FM270600 35007KT P6SM SCT150
     FM271400 33012KT P6SM FEW050=



000
FTUS43 KEAX 261700
TAFMCI
TAF
KMCI 261720Z 2618/2718 21010KT P6SM VCTS SCT070CB BKN150
     FM262000 22010KT P6SM SCT150
     FM270000 VRB06KT P6SM SCT045 BKN150
     FM270500 35007KT P6SM BKN150=



000
FTUS43 KEAX 261700
TAFSTJ
TAF
KSTJ 261720Z 2618/2718 21010KT P6SM VCTS SCT070CB BKN150
     FM262000 22010KT P6SM SCT150
     FM270000 VRB06KT P6SM SCT045 BKN150
     FM270500 35007KT P6SM BKN150=



000
FTUS43 KEAX 261700
TAFMKC
TAF
KMKC 261720Z 2618/2718 22010G17KT P6SM VCTS SCT070CB BKN150
     FM262000 23009KT P6SM SCT150
     FM270000 VRB06KT P6SM SCT045 BKN150
     FM270500 35007KT P6SM BKN150=



000
FTUS43 KEAX 261600 AAA
TAFSTJ
TAF AMD
KSTJ 261602Z 2616/2712 22008KT P6SM VCTS SCT070CB BKN150
     FM262200 VRB05KT P6SM SCT045 BKN150
     FM270400 35006KT P6SM BKN150=



000
FTUS43 KEAX 261600 AAA
TAFMKC
TAF AMD
KMKC 261601Z 2616/2712 22010G17KT P6SM VCTS SCT070CB BKN150
     FM262100 23009KT P6SM BKN200
     FM270000 VRB06KT P6SM SCT045 BKN150
     FM270500 35007KT P6SM BKN150=



000
FTUS43 KEAX 261500 AAA
TAFMCI
TAF AMD
KMCI 261559Z 2616/2712 21010KT P6SM VCTS SCT070CB BKN150
     FM262100 20010KT P6SM SCT150
     FM270000 VRB06KT P6SM SCT045 BKN150
     FM270500 35007KT P6SM BKN150=



000
FTUS43 KEAX 261100
TAFMKC
TAF
KMKC 261120Z 2612/2712 22010G17KT P6SM BKN200
     FM261700 23009KT P6SM BKN200
     FM270000 VRB06KT P6SM SCT045 BKN150
     FM270500 35007KT P6SM BKN150=



000
FTUS43 KEAX 261100
TAFMCI
TAF
KMCI 261120Z 2612/2712 21010KT P6SM BKN200
     FM270000 VRB06KT P6SM SCT045 BKN150
     FM270500 35007KT P6SM BKN150=



000
FTUS43 KEAX 261100
TAFSTJ
TAF
KSTJ 261120Z 2612/2712 VRB04KT P6SM BKN200
     FM261500 22008KT P6SM BKN200
     FM262300 VRB05KT P6SM SCT045 BKN150
     FM270400 35006KT P6SM BKN150=



000
FTUS43 KEAX 260500
TAFSTJ
TAF
KSTJ 260520Z 2606/2706 21007KT P6SM BKN200
     FM262300 VRB05KT P6SM SCT045 BKN150=



000
FTUS43 KEAX 260500
TAFMCI
TAF
KMCI 260520Z 2606/2706 21011KT P6SM BKN200
     FM270000 20008KT P6SM SCT045 BKN150=



000
FTUS43 KEAX 260500
TAFMKC
TAF
KMKC 260520Z 2606/2706 21010G17KT P6SM BKN200
     FM270000 20008KT P6SM SCT045 BKN150=



    US Dept of Commerce
    National Oceanic and Atmospheric Administration
    National Weather Service
    1325 East West Highway
    Silver Spring, MD 20910
    Page Author: NWS Internet Services Team
Disclaimer
Information Quality
Credits
Glossary
Privacy Policy
Freedom of Information Act (FOIA)
About Us
Career Opportunities